sensor_id;sensor_type;location;lat;lon;timestamp;temperature;humidity
8643;DHT22;4359;49.358;11.256;2023-07-13T00:02:06;17.90;99.90
8643;DHT22;4359;49.358;11.256;2023-07-13T00:04:32;18.00;99.90
8643;DHT22;4359;49.358;11.256;2023-07-13T00:06:58;18.00;99.90
8643;DHT22;4359;49.358;11.256;2023-07-13T00:09:24;18.00;99.90
8643;DHT22;4359;49.358;11.256;2023-07-13T00:11:58;18.00;99.90
8643;DHT22;4359;49.358;11.256;2023-07-13T00:14:26;18.00;99.90
8643;DHT22;4359;49.358;11.256;2023-07-13T00:16:52;18.00;99.90
8643;DHT22;4359;49.358;11.256;2023-07-13T00:19:17;18.10;99.90
8643;DHT22;4359;49.358;11.256;2023-07-13T00:21:43;18.10;99.90
8643;DHT22;4359;49.358;11.256;2023-07-13T00:24:12;18.20;99.90
8643;DHT22;4359;49.358;11.256;2023-07-13T00:26:39;18.30;99.90
8643;DHT22;4359;49.358;11.256;2023-07-13T00:29:05;18.30;99.90
8643;DHT22;4359;49.358;11.256;2023-07-13T00:31:34;18.40;99.90
8643;DHT22;4359;49.358;11.256;2023-07-13T00:34:01;18.50;99.90
8643;DHT22;4359;49.358;11.256;2023-07-13T00:36:26;18.50;99.90
8643;DHT22;4359;49.358;11.256;2023-07-13T00:38:52;18.50;99.90
8643;DHT22;4359;49.358;11.256;2023-07-13T00:41:18;18.40;99.90
8643;DHT22;4359;49.358;11.256;2023-07-13T00:43:44;18.40;99.90
8643;DHT22;4359;49.358;11.256;2023-07-13T00:46:32;18.40;99.90
8643;DHT22;4359;49.358;11.256;2023-07-13T00:49:02;18.30;99.90
8643;DHT22;4359;49.358;11.256;2023-07-13T00:51:41;18.20;99.90
8643;DHT22;4359;49.358;11.256;2023-07-13T00:54:12;18.20;99.90
8643;DHT22;4359;49.358;11.256;2023-07-13T00:56:41;18.20;99.90
8643;DHT22;4359;49.358;11.256;2023-07-13T00:59:11;18.10;99.90
8643;DHT22;4359;49.358;11.256;2023-07-13T01:01:37;18.10;99.90
8643;DHT22;4359;49.358;11.256;2023-07-13T01:04:03;18.00;99.90
8643;DHT22;4359;49.358;11.256;2023-07-13T01:06:34;18.00;99.90
8643;DHT22;4359;49.358;11.256;2023-07-13T01:09:01;17.90;99.90
8643;DHT22;4359;49.358;11.256;2023-07-13T01:11:27;17.80;99.90
8643;DHT22;4359;49.358;11.256;2023-07-13T01:13:52;17.70;99.90
8643;DHT22;4359;49.358;11.256;2023-07-13T01:16:28;17.60;99.90
8643;DHT22;4359;49.358;11.256;2023-07-13T01:18:55;17.50;99.90
8643;DHT22;4359;49.358;11.256;2023-07-13T01:21:25;17.40;99.90
8643;DHT22;4359;49.358;11.256;2023-07-13T01:23:50;17.30;99.90
8643;DHT22;4359;49.358;11.256;2023-07-13T01:26:16;17.30;99.90
8643;DHT22;4359;49.358;11.256;2023-07-13T01:28:42;17.10;99.90
8643;DHT22;4359;49.358;11.256;2023-07-13T01:31:09;17.00;99.90
8643;DHT22;4359;49.358;11.256;2023-07-13T01:33:37;17.00;99.90
8643;DHT22;4359;49.358;11.256;2023-07-13T01:36:03;16.90;99.90
8643;DHT22;4359;49.358;11.256;2023-07-13T01:38:29;16.90;99.90
8643;DHT22;4359;49.358;11.256;2023-07-13T01:40:55;16.80;99.90
8643;DHT22;4359;49.358;11.256;2023-07-13T01:43:20;16.70;99.90
8643;DHT22;4359;49.358;11.256;2023-07-13T01:45:46;16.60;99.90
8643;DHT22;4359;49.358;11.256;2023-07-13T01:48:13;16.60;99.90
8643;DHT22;4359;49.358;11.256;2023-07-13T01:50:39;16.60;99.90
8643;DHT22;4359;49.358;11.256;2023-07-13T01:53:05;16.50;99.90
8643;DHT22;4359;49.358;11.256;2023-07-13T01:55:31;16.50;99.90
8643;DHT22;4359;49.358;11.256;2023-07-13T01:57:57;16.40;99.90
8643;DHT22;4359;49.358;11.256;2023-07-13T02:00:23;16.40;99.90
8643;DHT22;4359;49.358;11.256;2023-07-13T02:02:50;16.50;99.90
8643;DHT22;4359;49.358;11.256;2023-07-13T02:05:16;16.60;99.90
8643;DHT22;4359;49.358;11.256;2023-07-13T02:07:41;16.50;99.90
8643;DHT22;4359;49.358;11.256;2023-07-13T02:10:09;16.40;99.90
8643;DHT22;4359;49.358;11.256;2023-07-13T02:12:35;16.30;99.90
8643;DHT22;4359;49.358;11.256;2023-07-13T02:15:01;16.30;99.90
8643;DHT22;4359;49.358;11.256;2023-07-13T02:17:27;16.20;99.90
8643;DHT22;4359;49.358;11.256;2023-07-13T02:19:53;16.10;99.90
8643;DHT22;4359;49.358;11.256;2023-07-13T02:22:19;16.00;99.90
8643;DHT22;4359;49.358;11.256;2023-07-13T02:24:45;16.00;99.90
8643;DHT22;4359;49.358;11.256;2023-07-13T02:27:11;15.90;99.90
8643;DHT22;4359;49.358;11.256;2023-07-13T02:29:37;15.80;99.90
8643;DHT22;4359;49.358;11.256;2023-07-13T02:32:03;15.80;99.90
8643;DHT22;4359;49.358;11.256;2023-07-13T02:34:30;15.70;99.90
8643;DHT22;4359;49.358;11.256;2023-07-13T02:36:55;15.60;99.90
8643;DHT22;4359;49.358;11.256;2023-07-13T02:39:21;15.50;99.90
8643;DHT22;4359;49.358;11.256;2023-07-13T02:41:47;15.50;99.90
8643;DHT22;4359;49.358;11.256;2023-07-13T02:44:14;15.50;99.90
8643;DHT22;4359;49.358;11.256;2023-07-13T02:46:40;15.40;99.90
8643;DHT22;4359;49.358;11.256;2023-07-13T02:49:06;15.40;99.90
8643;DHT22;4359;49.358;11.256;2023-07-13T02:51:32;15.20;99.90
8643;DHT22;4359;49.358;11.256;2023-07-13T02:54:00;15.10;99.90
8643;DHT22;4359;49.358;11.256;2023-07-13T02:56:27;15.10;99.90
8643;DHT22;4359;49.358;11.256;2023-07-13T02:58:53;15.00;99.90
8643;DHT22;4359;49.358;11.256;2023-07-13T03:01:20;15.00;99.90
8643;DHT22;4359;49.358;11.256;2023-07-13T03:03:47;15.00;99.90
8643;DHT22;4359;49.358;11.256;2023-07-13T03:06:14;15.00;99.90
8643;DHT22;4359;49.358;11.256;2023-07-13T03:08:40;14.90;99.90
8643;DHT22;4359;49.358;11.256;2023-07-13T03:11:09;14.80;99.90
8643;DHT22;4359;49.358;11.256;2023-07-13T03:13:36;14.80;99.90
8643;DHT22;4359;49.358;11.256;2023-07-13T03:16:02;14.70;99.90
8643;DHT22;4359;49.358;11.256;2023-07-13T03:18:28;14.70;99.90
8643;DHT22;4359;49.358;11.256;2023-07-13T03:20:54;14.60;99.90
8643;DHT22;4359;49.358;11.256;2023-07-13T03:23:21;14.60;99.90
8643;DHT22;4359;49.358;11.256;2023-07-13T03:25:47;14.50;99.90
8643;DHT22;4359;49.358;11.256;2023-07-13T03:28:13;14.50;99.90
8643;DHT22;4359;49.358;11.256;2023-07-13T03:30:39;14.50;99.90
8643;DHT22;4359;49.358;11.256;2023-07-13T03:33:05;14.50;99.90
8643;DHT22;4359;49.358;11.256;2023-07-13T03:35:31;14.50;99.90
8643;DHT22;4359;49.358;11.256;2023-07-13T03:37:58;14.40;99.90
8643;DHT22;4359;49.358;11.256;2023-07-13T03:40:25;14.40;99.90
8643;DHT22;4359;49.358;11.256;2023-07-13T03:42:52;14.30;99.90
8643;DHT22;4359;49.358;11.256;2023-07-13T03:45:18;14.30;99.90
8643;DHT22;4359;49.358;11.256;2023-07-13T03:47:43;14.20;99.90
8643;DHT22;4359;49.358;11.256;2023-07-13T03:50:09;14.30;99.90
8643;DHT22;4359;49.358;11.256;2023-07-13T03:52:35;14.30;99.90
8643;DHT22;4359;49.358;11.256;2023-07-13T03:55:01;14.20;99.90
8643;DHT22;4359;49.358;11.256;2023-07-13T03:57:27;14.20;99.90
8643;DHT22;4359;49.358;11.256;2023-07-13T03:59:52;14.20;99.90
8643;DHT22;4359;49.358;11.256;2023-07-13T04:02:18;14.20;99.90
8643;DHT22;4359;49.358;11.256;2023-07-13T04:04:44;14.20;99.90
8643;DHT22;4359;49.358;11.256;2023-07-13T04:07:09;14.30;99.90
8643;DHT22;4359;49.358;11.256;2023-07-13T04:09:36;14.20;99.90
8643;DHT22;4359;49.358;11.256;2023-07-13T04:12:02;14.30;99.90
8643;DHT22;4359;49.358;11.256;2023-07-13T04:14:28;14.30;99.90
8643;DHT22;4359;49.358;11.256;2023-07-13T04:16:53;14.30;99.90
8643;DHT22;4359;49.358;11.256;2023-07-13T04:19:20;14.40;99.90
8643;DHT22;4359;49.358;11.256;2023-07-13T04:21:46;14.50;99.90
8643;DHT22;4359;49.358;11.256;2023-07-13T04:24:12;14.60;99.90
8643;DHT22;4359;49.358;11.256;2023-07-13T04:26:38;14.60;99.90
8643;DHT22;4359;49.358;11.256;2023-07-13T04:29:06;14.70;99.90
8643;DHT22;4359;49.358;11.256;2023-07-13T04:31:32;14.70;99.90
8643;DHT22;4359;49.358;11.256;2023-07-13T04:33:58;14.80;99.90
8643;DHT22;4359;49.358;11.256;2023-07-13T04:36:24;14.90;99.90
8643;DHT22;4359;49.358;11.256;2023-07-13T04:38:52;14.80;99.90
8643;DHT22;4359;49.358;11.256;2023-07-13T04:41:20;14.80;99.90
8643;DHT22;4359;49.358;11.256;2023-07-13T04:43:46;14.70;99.90
8643;DHT22;4359;49.358;11.256;2023-07-13T04:46:13;14.70;99.90
8643;DHT22;4359;49.358;11.256;2023-07-13T04:48:40;14.70;99.90
8643;DHT22;4359;49.358;11.256;2023-07-13T04:51:05;14.70;99.90
8643;DHT22;4359;49.358;11.256;2023-07-13T04:53:32;14.70;99.90
8643;DHT22;4359;49.358;11.256;2023-07-13T04:55:59;14.80;99.90
8643;DHT22;4359;49.358;11.256;2023-07-13T04:58:26;14.80;99.90
8643;DHT22;4359;49.358;11.256;2023-07-13T05:00:53;14.90;99.90
8643;DHT22;4359;49.358;11.256;2023-07-13T05:03:19;15.10;99.90
8643;DHT22;4359;49.358;11.256;2023-07-13T05:05:58;15.20;99.90
8643;DHT22;4359;49.358;11.256;2023-07-13T05:08:25;15.50;99.90
8643;DHT22;4359;49.358;11.256;2023-07-13T05:10:51;15.70;99.90
8643;DHT22;4359;49.358;11.256;2023-07-13T05:13:17;15.80;99.90
8643;DHT22;4359;49.358;11.256;2023-07-13T05:15:43;16.10;99.90
8643;DHT22;4359;49.358;11.256;2023-07-13T05:18:09;16.30;99.90
8643;DHT22;4359;49.358;11.256;2023-07-13T05:20:34;16.50;99.90
8643;DHT22;4359;49.358;11.256;2023-07-13T05:23:00;16.60;99.90
8643;DHT22;4359;49.358;11.256;2023-07-13T05:25:29;16.60;99.90
8643;DHT22;4359;49.358;11.256;2023-07-13T05:27:54;16.70;99.90
8643;DHT22;4359;49.358;11.256;2023-07-13T05:30:20;16.90;99.90
8643;DHT22;4359;49.358;11.256;2023-07-13T05:32:46;17.10;99.90
8643;DHT22;4359;49.358;11.256;2023-07-13T05:35:11;17.30;99.90
8643;DHT22;4359;49.358;11.256;2023-07-13T05:37:37;17.50;99.90
8643;DHT22;4359;49.358;11.256;2023-07-13T05:40:03;17.70;99.90
8643;DHT22;4359;49.358;11.256;2023-07-13T05:42:29;17.90;99.90
8643;DHT22;4359;49.358;11.256;2023-07-13T05:44:57;18.00;99.90
8643;DHT22;4359;49.358;11.256;2023-07-13T05:47:22;18.30;99.90
8643;DHT22;4359;49.358;11.256;2023-07-13T05:49:48;18.50;99.90
8643;DHT22;4359;49.358;11.256;2023-07-13T05:52:14;18.70;99.90
8643;DHT22;4359;49.358;11.256;2023-07-13T05:54:39;18.80;99.90
8643;DHT22;4359;49.358;11.256;2023-07-13T05:57:05;18.90;99.90
8643;DHT22;4359;49.358;11.256;2023-07-13T05:59:31;19.00;99.90
8643;DHT22;4359;49.358;11.256;2023-07-13T06:01:56;19.20;99.90
8643;DHT22;4359;49.358;11.256;2023-07-13T06:04:22;19.50;99.90
8643;DHT22;4359;49.358;11.256;2023-07-13T06:06:48;19.90;99.90
8643;DHT22;4359;49.358;11.256;2023-07-13T06:09:13;19.90;99.90
8643;DHT22;4359;49.358;11.256;2023-07-13T06:11:39;20.10;99.90
8643;DHT22;4359;49.358;11.256;2023-07-13T06:14:04;20.10;99.90
8643;DHT22;4359;49.358;11.256;2023-07-13T06:16:30;19.90;99.90
8643;DHT22;4359;49.358;11.256;2023-07-13T06:18:56;20.00;99.90
8643;DHT22;4359;49.358;11.256;2023-07-13T06:21:22;20.10;99.90
8643;DHT22;4359;49.358;11.256;2023-07-13T06:23:50;20.20;99.90
8643;DHT22;4359;49.358;11.256;2023-07-13T06:26:17;20.00;99.90
8643;DHT22;4359;49.358;11.256;2023-07-13T06:28:46;20.00;99.90
8643;DHT22;4359;49.358;11.256;2023-07-13T06:31:13;19.90;99.90
8643;DHT22;4359;49.358;11.256;2023-07-13T06:33:39;19.70;99.90
8643;DHT22;4359;49.358;11.256;2023-07-13T06:36:06;19.60;99.90
8643;DHT22;4359;49.358;11.256;2023-07-13T06:38:33;19.70;99.90
8643;DHT22;4359;49.358;11.256;2023-07-13T06:40:58;20.10;99.90
8643;DHT22;4359;49.358;11.256;2023-07-13T06:43:24;20.30;99.90
8643;DHT22;4359;49.358;11.256;2023-07-13T06:45:50;20.60;99.90
8643;DHT22;4359;49.358;11.256;2023-07-13T06:48:17;20.80;99.90
8643;DHT22;4359;49.358;11.256;2023-07-13T06:50:44;21.00;99.90
8643;DHT22;4359;49.358;11.256;2023-07-13T06:53:11;20.90;99.90
8643;DHT22;4359;49.358;11.256;2023-07-13T06:55:38;20.70;99.90
8643;DHT22;4359;49.358;11.256;2023-07-13T06:58:04;20.80;99.90
8643;DHT22;4359;49.358;11.256;2023-07-13T07:00:30;20.80;99.90
8643;DHT22;4359;49.358;11.256;2023-07-13T07:02:59;21.00;99.90
8643;DHT22;4359;49.358;11.256;2023-07-13T07:05:24;21.30;99.90
8643;DHT22;4359;49.358;11.256;2023-07-13T07:07:51;21.00;99.90
8643;DHT22;4359;49.358;11.256;2023-07-13T07:10:18;20.90;99.90
8643;DHT22;4359;49.358;11.256;2023-07-13T07:12:44;21.00;99.90
8643;DHT22;4359;49.358;11.256;2023-07-13T07:15:10;21.00;99.90
8643;DHT22;4359;49.358;11.256;2023-07-13T07:17:39;20.90;99.90
8643;DHT22;4359;49.358;11.256;2023-07-13T07:20:06;20.80;99.90
8643;DHT22;4359;49.358;11.256;2023-07-13T07:22:32;20.70;99.90
8643;DHT22;4359;49.358;11.256;2023-07-13T07:24:58;20.70;99.90
8643;DHT22;4359;49.358;11.256;2023-07-13T07:27:24;20.70;99.90
8643;DHT22;4359;49.358;11.256;2023-07-13T07:29:50;20.80;99.90
8643;DHT22;4359;49.358;11.256;2023-07-13T07:32:16;21.10;99.90
8643;DHT22;4359;49.358;11.256;2023-07-13T07:34:42;21.00;99.90
8643;DHT22;4359;49.358;11.256;2023-07-13T07:37:11;20.80;99.90
8643;DHT22;4359;49.358;11.256;2023-07-13T07:39:37;21.20;99.90
8643;DHT22;4359;49.358;11.256;2023-07-13T07:42:03;21.80;99.90
8643;DHT22;4359;49.358;11.256;2023-07-13T07:44:31;22.40;99.90
8643;DHT22;4359;49.358;11.256;2023-07-13T07:46:56;22.60;99.90
8643;DHT22;4359;49.358;11.256;2023-07-13T07:49:22;22.90;99.90
8643;DHT22;4359;49.358;11.256;2023-07-13T07:51:48;22.50;99.90
8643;DHT22;4359;49.358;11.256;2023-07-13T07:54:13;22.40;99.90
8643;DHT22;4359;49.358;11.256;2023-07-13T07:56:40;21.80;99.90
8643;DHT22;4359;49.358;11.256;2023-07-13T07:59:05;21.70;99.90
8643;DHT22;4359;49.358;11.256;2023-07-13T08:01:31;21.30;99.90
8643;DHT22;4359;49.358;11.256;2023-07-13T08:03:57;21.20;99.90
8643;DHT22;4359;49.358;11.256;2023-07-13T08:06:23;21.20;99.90
8643;DHT22;4359;49.358;11.256;2023-07-13T08:08:48;21.60;99.90
8643;DHT22;4359;49.358;11.256;2023-07-13T08:11:14;22.30;99.90
8643;DHT22;4359;49.358;11.256;2023-07-13T08:13:40;22.70;99.90
8643;DHT22;4359;49.358;11.256;2023-07-13T08:16:06;22.60;99.90
8643;DHT22;4359;49.358;11.256;2023-07-13T08:18:32;23.00;99.90
8643;DHT22;4359;49.358;11.256;2023-07-13T08:20:58;23.30;99.90
8643;DHT22;4359;49.358;11.256;2023-07-13T08:23:25;23.10;99.90
8643;DHT22;4359;49.358;11.256;2023-07-13T08:25:54;23.00;99.90
8643;DHT22;4359;49.358;11.256;2023-07-13T08:28:21;23.10;99.90
8643;DHT22;4359;49.358;11.256;2023-07-13T08:30:47;23.10;99.90
8643;DHT22;4359;49.358;11.256;2023-07-13T08:33:18;23.00;99.90
8643;DHT22;4359;49.358;11.256;2023-07-13T08:35:48;23.00;99.90
8643;DHT22;4359;49.358;11.256;2023-07-13T08:38:14;23.30;99.90
8643;DHT22;4359;49.358;11.256;2023-07-13T08:40:41;23.40;99.90
8643;DHT22;4359;49.358;11.256;2023-07-13T08:43:16;23.60;99.90
8643;DHT22;4359;49.358;11.256;2023-07-13T08:45:43;23.70;99.90
8643;DHT22;4359;49.358;11.256;2023-07-13T08:52:16;23.90;99.90
8643;DHT22;4359;49.358;11.256;2023-07-13T08:54:36;24.30;99.90
8643;DHT22;4359;49.358;11.256;2023-07-13T08:57:14;24.10;99.90
8643;DHT22;4359;49.358;11.256;2023-07-13T08:59:40;24.10;99.90
8643;DHT22;4359;49.358;11.256;2023-07-13T09:04:50;23.80;98.80
8643;DHT22;4359;49.358;11.256;2023-07-13T09:15:32;23.60;99.80
8643;DHT22;4359;49.358;11.256;2023-07-13T09:18:08;24.00;99.90
8643;DHT22;4359;49.358;11.256;2023-07-13T09:20:46;24.00;98.80
8643;DHT22;4359;49.358;11.256;2023-07-13T09:23:20;23.60;97.60
8643;DHT22;4359;49.358;11.256;2023-07-13T09:25:53;23.70;97.90
8643;DHT22;4359;49.358;11.256;2023-07-13T09:28:29;23.70;98.60
8643;DHT22;4359;49.358;11.256;2023-07-13T09:31:07;23.40;97.20
8643;DHT22;4359;49.358;11.256;2023-07-13T09:33:35;23.60;98.20
8643;DHT22;4359;49.358;11.256;2023-07-13T09:36:05;23.70;96.80
8643;DHT22;4359;49.358;11.256;2023-07-13T09:38:43;23.60;96.30
8643;DHT22;4359;49.358;11.256;2023-07-13T09:44:06;23.70;97.30
8643;DHT22;4359;49.358;11.256;2023-07-13T09:46:35;23.40;96.80
8643;DHT22;4359;49.358;11.256;2023-07-13T09:49:00;23.20;97.70
8643;DHT22;4359;49.358;11.256;2023-07-13T09:51:26;23.30;97.70
8643;DHT22;4359;49.358;11.256;2023-07-13T09:53:53;23.50;98.20
8643;DHT22;4359;49.358;11.256;2023-07-13T09:56:28;23.90;98.50
8643;DHT22;4359;49.358;11.256;2023-07-13T09:59:01;24.40;97.60
8643;DHT22;4359;49.358;11.256;2023-07-13T10:01:37;24.90;97.20
8643;DHT22;4359;49.358;11.256;2023-07-13T10:04:11;25.10;95.70
8643;DHT22;4359;49.358;11.256;2023-07-13T10:06:39;25.10;97.50
8643;DHT22;4359;49.358;11.256;2023-07-13T10:09:09;25.50;97.60
8643;DHT22;4359;49.358;11.256;2023-07-13T10:11:36;25.70;95.00
8643;DHT22;4359;49.358;11.256;2023-07-13T10:14:20;25.90;94.90
8643;DHT22;4359;49.358;11.256;2023-07-13T10:16:52;25.50;93.80
8643;DHT22;4359;49.358;11.256;2023-07-13T10:19:27;25.30;96.00
8643;DHT22;4359;49.358;11.256;2023-07-13T10:22:07;25.60;94.60
8643;DHT22;4359;49.358;11.256;2023-07-13T10:24:40;25.80;93.20
8643;DHT22;4359;49.358;11.256;2023-07-13T10:27:19;25.90;93.00
8643;DHT22;4359;49.358;11.256;2023-07-13T10:30:11;25.20;92.70
8643;DHT22;4359;49.358;11.256;2023-07-13T10:32:38;25.40;93.50
8643;DHT22;4359;49.358;11.256;2023-07-13T10:35:05;25.80;91.60
8643;DHT22;4359;49.358;11.256;2023-07-13T10:37:51;25.10;93.20
8643;DHT22;4359;49.358;11.256;2023-07-13T10:40:25;25.80;91.90
8643;DHT22;4359;49.358;11.256;2023-07-13T10:42:55;26.50;90.80
8643;DHT22;4359;49.358;11.256;2023-07-13T10:45:23;26.50;92.10
8643;DHT22;4359;49.358;11.256;2023-07-13T10:47:51;26.40;93.20
8643;DHT22;4359;49.358;11.256;2023-07-13T10:50:23;26.60;92.20
8643;DHT22;4359;49.358;11.256;2023-07-13T10:52:54;27.00;91.40
8643;DHT22;4359;49.358;11.256;2023-07-13T10:58:32;27.30;89.80
8643;DHT22;4359;49.358;11.256;2023-07-13T11:01:07;27.40;90.50
8643;DHT22;4359;49.358;11.256;2023-07-13T11:03:36;26.50;90.30
8643;DHT22;4359;49.358;11.256;2023-07-13T11:06:16;26.20;92.20
8643;DHT22;4359;49.358;11.256;2023-07-13T11:11:40;27.00;90.70
8643;DHT22;4359;49.358;11.256;2023-07-13T11:16:53;24.80;90.60
8643;DHT22;4359;49.358;11.256;2023-07-13T11:22:11;25.50;92.60
8643;DHT22;4359;49.358;11.256;2023-07-13T11:24:58;26.40;90.90
8643;DHT22;4359;49.358;11.256;2023-07-13T11:27:43;26.90;89.10
8643;DHT22;4359;49.358;11.256;2023-07-13T11:30:31;27.40;89.40
8643;DHT22;4359;49.358;11.256;2023-07-13T11:35:45;27.10;86.90
8643;DHT22;4359;49.358;11.256;2023-07-13T11:38:15;27.40;88.30
8643;DHT22;4359;49.358;11.256;2023-07-13T11:40:44;27.60;87.00
8643;DHT22;4359;49.358;11.256;2023-07-13T11:43:13;27.70;87.50
8643;DHT22;4359;49.358;11.256;2023-07-13T11:45:39;28.40;85.10
8643;DHT22;4359;49.358;11.256;2023-07-13T11:48:16;28.90;84.70
8643;DHT22;4359;49.358;11.256;2023-07-13T11:50:42;28.50;86.00
8643;DHT22;4359;49.358;11.256;2023-07-13T11:53:15;28.30;84.40
8643;DHT22;4359;49.358;11.256;2023-07-13T11:55:40;28.30;84.60
8643;DHT22;4359;49.358;11.256;2023-07-13T11:58:09;27.90;85.50
8643;DHT22;4359;49.358;11.256;2023-07-13T12:00:35;27.30;87.50
8643;DHT22;4359;49.358;11.256;2023-07-13T12:03:05;26.70;86.80
8643;DHT22;4359;49.358;11.256;2023-07-13T12:05:31;25.70;88.70
8643;DHT22;4359;49.358;11.256;2023-07-13T12:07:57;26.00;88.80
8643;DHT22;4359;49.358;11.256;2023-07-13T12:10:28;27.00;85.70
8643;DHT22;4359;49.358;11.256;2023-07-13T12:13:05;27.70;88.40
8643;DHT22;4359;49.358;11.256;2023-07-13T12:15:43;29.00;88.30
8643;DHT22;4359;49.358;11.256;2023-07-13T12:18:17;29.70;85.40
8643;DHT22;4359;49.358;11.256;2023-07-13T12:20:45;29.20;81.40
8643;DHT22;4359;49.358;11.256;2023-07-13T12:23:25;29.10;80.10
8643;DHT22;4359;49.358;11.256;2023-07-13T12:25:52;29.50;83.50
8643;DHT22;4359;49.358;11.256;2023-07-13T12:31:35;30.00;78.70
8643;DHT22;4359;49.358;11.256;2023-07-13T12:34:09;29.90;82.50
8643;DHT22;4359;49.358;11.256;2023-07-13T12:36:45;29.70;77.90
8643;DHT22;4359;49.358;11.256;2023-07-13T12:41:42;29.70;82.50
8643;DHT22;4359;49.358;11.256;2023-07-13T12:44:11;29.80;82.70
8643;DHT22;4359;49.358;11.256;2023-07-13T12:46:38;29.50;82.00
8643;DHT22;4359;49.358;11.256;2023-07-13T12:49:06;29.10;82.50
8643;DHT22;4359;49.358;11.256;2023-07-13T12:51:32;28.80;79.70
8643;DHT22;4359;49.358;11.256;2023-07-13T12:54:15;28.80;79.60
8643;DHT22;4359;49.358;11.256;2023-07-13T12:56:42;28.30;82.90
8643;DHT22;4359;49.358;11.256;2023-07-13T12:59:18;27.30;82.50
8643;DHT22;4359;49.358;11.256;2023-07-13T13:01:44;27.20;86.10
8643;DHT22;4359;49.358;11.256;2023-07-13T13:04:09;27.00;84.40
8643;DHT22;4359;49.358;11.256;2023-07-13T13:06:38;27.10;87.30
8643;DHT22;4359;49.358;11.256;2023-07-13T13:09:11;27.50;85.80
8643;DHT22;4359;49.358;11.256;2023-07-13T13:11:37;27.90;85.20
8643;DHT22;4359;49.358;11.256;2023-07-13T13:14:03;28.50;84.30
8643;DHT22;4359;49.358;11.256;2023-07-13T13:16:45;29.10;83.90
8643;DHT22;4359;49.358;11.256;2023-07-13T13:19:18;28.80;82.30
8643;DHT22;4359;49.358;11.256;2023-07-13T13:21:46;27.80;83.90
8643;DHT22;4359;49.358;11.256;2023-07-13T13:24:17;27.40;86.50
8643;DHT22;4359;49.358;11.256;2023-07-13T13:26:44;26.90;85.60
8643;DHT22;4359;49.358;11.256;2023-07-13T13:29:15;26.40;86.90
8643;DHT22;4359;49.358;11.256;2023-07-13T13:31:42;26.20;85.20
8643;DHT22;4359;49.358;11.256;2023-07-13T13:34:12;26.20;87.10
8643;DHT22;4359;49.358;11.256;2023-07-13T13:36:39;26.50;89.60
8643;DHT22;4359;49.358;11.256;2023-07-13T13:39:20;26.90;85.70
8643;DHT22;4359;49.358;11.256;2023-07-13T13:41:47;27.00;89.00
8643;DHT22;4359;49.358;11.256;2023-07-13T13:44:15;26.80;86.20
8643;DHT22;4359;49.358;11.256;2023-07-13T13:46:42;26.00;87.20
8643;DHT22;4359;49.358;11.256;2023-07-13T13:49:19;26.00;90.10
8643;DHT22;4359;49.358;11.256;2023-07-13T13:51:46;26.50;87.70
8643;DHT22;4359;49.358;11.256;2023-07-13T13:54:13;27.20;85.40
8643;DHT22;4359;49.358;11.256;2023-07-13T13:56:42;26.80;86.30
8643;DHT22;4359;49.358;11.256;2023-07-13T13:59:07;26.40;87.20
8643;DHT22;4359;49.358;11.256;2023-07-13T14:01:34;26.50;87.50
8643;DHT22;4359;49.358;11.256;2023-07-13T14:04:01;27.40;87.50
8643;DHT22;4359;49.358;11.256;2023-07-13T14:06:26;28.20;84.60
8643;DHT22;4359;49.358;11.256;2023-07-13T14:08:53;28.60;84.20
8643;DHT22;4359;49.358;11.256;2023-07-13T14:11:21;28.40;84.30
8643;DHT22;4359;49.358;11.256;2023-07-13T14:13:53;28.20;85.40
8643;DHT22;4359;49.358;11.256;2023-07-13T14:16:21;27.40;84.00
8643;DHT22;4359;49.358;11.256;2023-07-13T14:18:48;27.70;88.00
8643;DHT22;4359;49.358;11.256;2023-07-13T14:21:22;29.00;85.20
8643;DHT22;4359;49.358;11.256;2023-07-13T14:23:48;29.50;84.20
8643;DHT22;4359;49.358;11.256;2023-07-13T14:26:25;29.30;80.80
8643;DHT22;4359;49.358;11.256;2023-07-13T14:28:53;29.20;81.70
8643;DHT22;4359;49.358;11.256;2023-07-13T14:31:22;29.60;82.40
8643;DHT22;4359;49.358;11.256;2023-07-13T14:33:48;30.00;83.30
8643;DHT22;4359;49.358;11.256;2023-07-13T14:36:39;30.50;80.90
8643;DHT22;4359;49.358;11.256;2023-07-13T14:39:25;31.10;79.20
8643;DHT22;4359;49.358;11.256;2023-07-13T14:41:52;29.80;79.70
8643;DHT22;4359;49.358;11.256;2023-07-13T14:44:21;29.80;81.00
8643;DHT22;4359;49.358;11.256;2023-07-13T14:46:48;29.60;79.60
8643;DHT22;4359;49.358;11.256;2023-07-13T14:49:39;29.20;80.70
8643;DHT22;4359;49.358;11.256;2023-07-13T14:52:18;29.80;80.70
8643;DHT22;4359;49.358;11.256;2023-07-13T14:54:44;28.50;81.70
8643;DHT22;4359;49.358;11.256;2023-07-13T14:57:12;28.70;83.60
8643;DHT22;4359;49.358;11.256;2023-07-13T14:59:38;28.70;81.90
8643;DHT22;4359;49.358;11.256;2023-07-13T15:02:15;28.80;81.00
8643;DHT22;4359;49.358;11.256;2023-07-13T15:04:41;28.50;81.80
8643;DHT22;4359;49.358;11.256;2023-07-13T15:07:10;28.60;83.10
8643;DHT22;4359;49.358;11.256;2023-07-13T15:09:36;28.80;81.00
8643;DHT22;4359;49.358;11.256;2023-07-13T15:12:02;29.50;80.90
8643;DHT22;4359;49.358;11.256;2023-07-13T15:14:32;29.90;78.70
8643;DHT22;4359;49.358;11.256;2023-07-13T15:16:58;29.70;78.20
8643;DHT22;4359;49.358;11.256;2023-07-13T15:19:25;30.30;79.00
8643;DHT22;4359;49.358;11.256;2023-07-13T15:21:51;29.70;80.30
8643;DHT22;4359;49.358;11.256;2023-07-13T15:24:20;28.50;79.40
8643;DHT22;4359;49.358;11.256;2023-07-13T15:26:47;29.30;78.90
8643;DHT22;4359;49.358;11.256;2023-07-13T15:29:15;29.40;77.30
8643;DHT22;4359;49.358;11.256;2023-07-13T15:31:41;29.60;80.60
8643;DHT22;4359;49.358;11.256;2023-07-13T15:34:15;30.30;76.80
8643;DHT22;4359;49.358;11.256;2023-07-13T15:36:42;30.70;78.00
8643;DHT22;4359;49.358;11.256;2023-07-13T15:39:14;30.60;76.30
8643;DHT22;4359;49.358;11.256;2023-07-13T15:41:41;30.70;74.70
8643;DHT22;4359;49.358;11.256;2023-07-13T15:44:30;30.10;77.30
8643;DHT22;4359;49.358;11.256;2023-07-13T15:46:57;28.90;75.90
8643;DHT22;4359;49.358;11.256;2023-07-13T15:49:25;27.80;77.70
8643;DHT22;4359;49.358;11.256;2023-07-13T15:51:51;27.30;80.70
8643;DHT22;4359;49.358;11.256;2023-07-13T15:54:18;27.30;81.20
8643;DHT22;4359;49.358;11.256;2023-07-13T15:56:50;26.90;80.10
8643;DHT22;4359;49.358;11.256;2023-07-13T15:59:18;26.50;77.90
8643;DHT22;4359;49.358;11.256;2023-07-13T16:01:44;26.20;81.20
8643;DHT22;4359;49.358;11.256;2023-07-13T16:04:12;26.20;79.40
8643;DHT22;4359;49.358;11.256;2023-07-13T16:06:40;26.10;80.90
8643;DHT22;4359;49.358;11.256;2023-07-13T16:09:07;25.70;80.90
8643;DHT22;4359;49.358;11.256;2023-07-13T16:11:38;25.70;81.70
8643;DHT22;4359;49.358;11.256;2023-07-13T16:14:04;25.90;82.80
8643;DHT22;4359;49.358;11.256;2023-07-13T16:16:33;26.00;84.30
8643;DHT22;4359;49.358;11.256;2023-07-13T16:19:02;26.40;81.80
8643;DHT22;4359;49.358;11.256;2023-07-13T16:21:30;26.70;80.70
8643;DHT22;4359;49.358;11.256;2023-07-13T16:23:58;27.40;82.10
8643;DHT22;4359;49.358;11.256;2023-07-13T16:26:35;28.60;79.10
8643;DHT22;4359;49.358;11.256;2023-07-13T16:29:10;29.90;75.90
8643;DHT22;4359;49.358;11.256;2023-07-13T16:31:36;30.30;76.90